avis per tempestes more information blitzortung!


avis per Pluja more information rain snow radar


Visita la nostra xarxa de llocs de meteo:

Template documentation
and downloads

And another site



Rain From: 17-08-2018 13:00 Until: 22:59 warning for: Rain Level: Orange info button
Thunderstorms From: 17-08-2018 12:00 Until: 18-08-2018 08:59 warning for: Thunderstorms Level: Yellow info button

Pagina Historial Weather Underground text

Diari Resum May 28, 2017 Unitats:  Imperial    Mètric   Tant
« Previous Dia
SegĂźent Dia »
Diari Setmana Mensual Anual Personalitzada
  Maxima: Minima: Media:
Temperatura: TemperatureC °F 14.9 °F 22.5 °F
Punt de rosada: DewpointC °F 7.8 °F 10.9 °F
Humitat: Humidity % 32 % 49 %
Wind Speed: WindSpeedKMH mph 0.0 mph 7.6 mph
RĂ fegues de vent: WindSpeedGustKMH mph - -
Vent:- - ESE
Pression baro: PressurehPa in 1015.8 in -
Precipitacions: 0.0 in    
Historical Graphs
 
 
Dades de taula per May 28, 2017
Temps Temperatura Punt de rosada Pression baro Vent Wind Speed RĂ fegues de vent Humitat Rainfall Rate (Hourly)
TemperatureC °F DewpointC °F PressurehPa in Calm     Humidity % HourlyPrecipMM in
00:00 15.4 °F 11.9 °F 1018.8 in SW 3.2 mph 3.2 mph 80 % 0.0 in
00:04 18.8 °F 13.7 °F 1018.8 in NNE 1.9 mph   72 % 0.0 in
00:09 18.7 °F 13.6 °F 1018.8 in Calm     72 % 0.0 in
00:10 15.3 °F 12.1 °F 1017.8 in SW 1.6 mph 3.2 mph 81 % 0.0 in
00:14 18.7 °F 13.6 °F 1018.8 in ENE 1.9 mph 1.9 mph 72 % 0.0 in
00:20 15.2 °F 11.9 °F 1017.8 in SW 1.6 mph 3.2 mph 81 % 0.0 in
00:30 15.1 °F 11.7 °F 1017.8 in Calm   3.2 mph 80 % 0.0 in
00:40 15.1 °F 11.9 °F 1017.8 in SW 1.6 mph 1.6 mph 81 % 0.0 in
00:50 15.2 °F 11.8 °F 1017.8 in WSW 3.2 mph 3.2 mph 80 % 0.0 in
01:00 14.9 °F 11.7 °F 1018.8 in Calm   3.2 mph 81 % 0.0 in
01:10 14.9 °F 11.7 °F 1018.8 in WSW 1.6 mph 3.2 mph 81 % 0.0 in
01:20 14.9 °F 11.5 °F 1018.8 in WSW 3.2 mph 3.2 mph 80 % 0.0 in
01:30 15.0 °F 11.6 °F 1018.8 in WSW 1.6 mph 3.2 mph 80 % 0.0 in
01:40 15.0 °F 11.6 °F 1018.8 in SW 1.6 mph 3.2 mph 80 % 0.0 in
01:50 15.0 °F 11.8 °F 1018.8 in SW 1.6 mph 3.2 mph 81 % 0.0 in
02:00 15.1 °F 11.9 °F 1018.8 in Calm   3.2 mph 81 % 0.0 in
02:10 15.3 °F 12.1 °F 1018.8 in SW 1.6 mph 3.2 mph 81 % 0.0 in
02:20 15.5 °F 12.1 °F 1018.8 in SW 1.6 mph 3.2 mph 80 % 0.0 in
02:30 15.9 °F 12.4 °F 1018.8 in Calm   1.6 mph 80 % 0.0 in
02:40 16.0 °F 12.3 °F 1018.8 in WSW 3.2 mph 3.2 mph 79 % 0.0 in
02:50 16.2 °F 12.6 °F 1018.8 in SW 3.2 mph 3.2 mph 79 % 0.0 in
03:00 16.4 °F 12.7 °F 1018.8 in SW 1.6 mph 3.2 mph 79 % 0.0 in
03:10 17.5 °F 13.4 °F 1019.9 in SSW 1.6 mph 1.6 mph 77 % 0.0 in
03:20 18.0 °F 13.5 °F 1019.9 in South 1.6 mph 3.2 mph 75 % 0.0 in
03:30 18.1 °F 13.4 °F 1018.8 in SW 1.6 mph 3.2 mph 74 % 0.0 in
03:40 18.1 °F 13.4 °F 1019.9 in SW 3.2 mph 3.2 mph 74 % 0.0 in
03:50 18.8 °F 13.8 °F 1019.9 in Calm   1.6 mph 73 % 0.0 in
04:00 19.7 °F 14.1 °F 1019.9 in SW 1.6 mph 3.2 mph 70 % 0.0 in
04:10 19.8 °F 13.9 °F 1019.9 in SW 1.6 mph 4.8 mph 69 % 0.0 in
04:20 20.6 °F 13.8 °F 1019.9 in SSW 3.2 mph 3.2 mph 65 % 0.0 in
04:30 21.3 °F 14.4 °F 1018.8 in SSE 1.6 mph 3.2 mph 65 % 0.0 in
04:40 22.0 °F 14.1 °F 1019.9 in ESE 1.6 mph 3.2 mph 61 % 0.0 in
04:50 22.8 °F 14.6 °F 1019.9 in Calm   3.2 mph 60 % 0.0 in
05:00 22.8 °F 14.4 °F 1019.9 in NNE 3.2 mph 4.8 mph 59 % 0.0 in
05:10 22.9 °F 13.9 °F 1019.9 in NNE 1.6 mph 4.8 mph 57 % 0.0 in
05:20 23.4 °F 13.8 °F 1019.9 in NE 4.8 mph 4.8 mph 55 % 0.0 in
05:30 24.0 °F 13.8 °F 1019.9 in NE 4.8 mph 9.7 mph 53 % 0.0 in
05:40 24.4 °F 13.9 °F 1019.9 in NNE 4.8 mph 6.4 mph 52 % 0.0 in
05:50 24.6 °F 13.2 °F 1019.9 in NE 4.8 mph 6.4 mph 49 % 0.0 in
06:00 25.2 °F 13.4 °F 1018.8 in ENE 3.2 mph 4.8 mph 48 % 0.0 in
11:07 25.0 °F 13.2 °F 1019.9 in ENE 5.6 mph 5.6 mph 48 % 0.0 in
11:12 25.2 °F 12.8 °F 1019.9 in ESE 7.4 mph 7.4 mph 46 % 0.0 in
11:17 25.2 °F 12.8 °F 1019.9 in ESE 7.4 mph 7.4 mph 46 % 0.0 in
11:22 25.6 °F 13.1 °F 1019.9 in SE 4.2 mph 4.2 mph 46 % 0.0 in
11:27 26.3 °F 13.8 °F 1019.9 in NNE 7.4 mph 7.4 mph 46 % 0.0 in
11:32 25.8 °F 13.3 °F 1019.9 in ESE 7.4 mph 7.4 mph 46 % 0.0 in
11:37 25.7 °F 12.9 °F 1019.9 in East 7.4 mph 7.4 mph 45 % 0.0 in
11:42 26.4 °F 13.5 °F 1019.9 in NNW 5.6 mph 5.6 mph 45 % 0.0 in
11:47 26.1 °F 12.9 °F 1019.9 in ESE 9.7 mph 9.7 mph 44 % 0.0 in
11:52 26.4 °F 13.5 °F 1019.9 in WSW 2.6 mph   45 % 0.0 in
11:57 26.8 °F 13.9 °F 1019.9 in NW 5.6 mph 5.6 mph 45 % 0.0 in
12:02 27.0 °F 13.0 °F 1019.9 in ESE 7.4 mph 7.4 mph 42 % 0.0 in
12:07 26.7 °F 13.1 °F 1018.8 in ESE 7.4 mph 7.4 mph 43 % 0.0 in
12:12 26.9 °F 12.9 °F 1018.8 in ESE 9.3 mph 9.3 mph 42 % 0.0 in
12:17 26.7 °F 12.3 °F 1018.8 in ESE 7.4 mph 7.4 mph 41 % 0.0 in
12:22 27.0 °F 12.2 °F 1018.8 in ENE 5.6 mph 5.6 mph 40 % 0.0 in
12:27 26.8 °F 12.4 °F 1018.8 in ENE 7.4 mph 7.4 mph 41 % 0.0 in
12:32 27.0 °F 11.9 °F 1018.8 in SE 7.4 mph 7.4 mph 39 % 0.0 in
12:37 26.7 °F 11.6 °F 1018.8 in SE 11.1 mph 11.1 mph 39 % 0.0 in
12:47 27.5 °F 11.9 °F 1018.8 in ESE 14.8 mph 14.8 mph 38 % 0.0 in
12:52 27.2 °F 12.1 °F 1017.8 in ENE 9.3 mph 9.3 mph 39 % 0.0 in
12:57 27.4 °F 11.8 °F 1017.8 in NE 9.3 mph 9.3 mph 38 % 0.0 in
13:02 27.5 °F 12.3 °F 1017.8 in ENE 9.3 mph 9.3 mph 39 % 0.0 in
13:07 27.3 °F 12.1 °F 1017.8 in East 7.4 mph 7.4 mph 39 % 0.0 in
13:12 27.2 °F 11.2 °F 1017.8 in ESE 16.7 mph 16.7 mph 37 % 0.0 in
13:17 27.4 °F 11.4 °F 1017.8 in ENE 11.1 mph 11.1 mph 37 % 0.0 in
13:27 27.4 °F 11.4 °F 1017.8 in ENE 13.0 mph 13.0 mph 37 % 0.0 in
13:32 27.6 °F 12.0 °F 1017.8 in East 14.8 mph 14.8 mph 38 % 0.0 in
13:37 27.5 °F 11.5 °F 1017.8 in ESE 13.0 mph 13.0 mph 37 % 0.0 in
13:42 27.3 °F 11.3 °F 1017.8 in ESE 11.1 mph 11.1 mph 37 % 0.0 in
13:47 27.3 °F 11.7 °F 1017.8 in SE 14.8 mph 14.8 mph 38 % 0.0 in
13:52 27.3 °F 11.3 °F 1017.8 in SE 14.8 mph 14.8 mph 37 % 0.0 in
13:57 27.4 °F 11.4 °F 1017.8 in ESE 13.0 mph 13.0 mph 37 % 0.0 in
14:02 27.4 °F 11.8 °F 1017.8 in ESE 13.0 mph 13.0 mph 38 % 0.0 in
14:07 27.4 °F 11.8 °F 1017.8 in East 9.5 mph 9.5 mph 38 % 0.0 in
14:12 27.1 °F 11.6 °F 1017.8 in East 16.1 mph 16.1 mph 38 % 0.0 in
14:17 27.4 °F 11.8 °F 1017.8 in ENE 11.1 mph 11.1 mph 38 % 0.0 in
14:22 27.4 °F 11.4 °F 1017.8 in East 9.3 mph 9.3 mph 37 % 0.0 in
14:27 27.2 °F 11.2 °F 1017.8 in NNE 16.7 mph 16.7 mph 37 % 0.0 in
14:32 27.4 °F 11.4 °F 1017.8 in East 13.0 mph 13.0 mph 37 % 0.0 in
14:37 27.5 °F 11.5 °F 1017.8 in ESE 11.1 mph 11.1 mph 37 % 0.0 in
14:42 27.7 °F 11.7 °F 1017.8 in East 9.3 mph 9.3 mph 37 % 0.0 in
14:47 27.7 °F 11.7 °F 1017.8 in ESE 11.1 mph 11.1 mph 37 % 0.0 in
14:52 27.5 °F 11.5 °F 1017.8 in ESE 14.8 mph 14.8 mph 37 % 0.0 in
14:57 27.8 °F 12.2 °F 1017.8 in East 9.3 mph 9.3 mph 38 % 0.0 in
15:02 27.5 °F 11.9 °F 1017.8 in ESE 18.0 mph 18.0 mph 38 % 0.0 in
15:07 27.1 °F 11.6 °F 1017.8 in ESE 13.0 mph 13.0 mph 38 % 0.0 in
15:12 27.3 °F 11.7 °F 1017.8 in East 13.0 mph 13.0 mph 38 % 0.0 in
15:17 27.1 °F 11.6 °F 1017.8 in East 13.0 mph 13.0 mph 38 % 0.0 in
15:22 27.0 °F 11.4 °F 1017.8 in ESE 14.8 mph 14.8 mph 38 % 0.0 in
15:23 27.0 °F 11.4 °F 1017.8 in ESE 14.8 mph 14.8 mph 38 % 0.0 in
15:28 27.2 °F 11.7 °F 1017.8 in ESE 19.5 mph 19.5 mph 38 % 0.0 in
15:33 27.0 °F 11.1 °F 1017.8 in SSE 13.0 mph 13.0 mph 37 % 0.0 in
15:38 27.1 °F 11.2 °F 1017.8 in SE 16.7 mph 16.7 mph 37 % 0.0 in
15:43 27.2 °F 11.7 °F 1017.8 in East 13.0 mph 13.0 mph 38 % 0.0 in
15:48 26.9 °F 11.4 °F 1017.8 in ESE 18.5 mph 18.5 mph 38 % 0.0 in
15:53 26.7 °F 11.2 °F 1017.8 in East 14.8 mph 14.8 mph 38 % 0.0 in
15:58 26.8 °F 11.3 °F 1017.8 in ESE 13.0 mph 13.0 mph 38 % 0.0 in
16:03 26.6 °F 10.7 °F 1017.8 in ESE 16.7 mph 16.7 mph 37 % 0.0 in
16:08 26.5 °F 10.6 °F 1017.8 in ENE 20.4 mph 20.4 mph 37 % 0.0 in
16:13 26.6 °F 10.7 °F 1017.8 in East 18.5 mph 18.5 mph 37 % 0.0 in
16:18 26.9 °F 11.0 °F 1017.8 in ENE 13.0 mph 13.0 mph 37 % 0.0 in
16:23 26.7 °F 10.8 °F 1016.8 in ESE 14.8 mph 14.8 mph 37 % 0.0 in
16:28 26.9 °F 10.6 °F 1016.8 in East 13.0 mph 13.0 mph 36 % 0.0 in
16:33 27.0 °F 10.2 °F 1016.8 in East 14.8 mph 14.8 mph 35 % 0.0 in
16:38 27.0 °F 9.8 °F 1016.8 in East 14.8 mph 14.8 mph 34 % 0.0 in
16:43 26.8 °F 10.1 °F 1016.8 in ENE 16.7 mph 16.7 mph 35 % 0.0 in
16:48 26.8 °F 9.6 °F 1016.8 in ESE 16.7 mph 16.7 mph 34 % 0.0 in
16:53 26.6 °F 9.4 °F 1017.8 in ESE 13.0 mph 13.0 mph 34 % 0.0 in
16:58 26.6 °F 9.9 °F 1017.8 in ENE 13.0 mph 13.0 mph 35 % 0.0 in
17:03 26.6 °F 9.4 °F 1017.8 in South 14.0 mph 14.0 mph 34 % 0.0 in
17:08 26.4 °F 8.8 °F 1017.8 in ENE 14.8 mph 14.8 mph 33 % 0.0 in
17:13 26.3 °F 9.2 °F 1017.8 in ESE 16.7 mph 16.7 mph 34 % 0.0 in
17:18 26.2 °F 9.1 °F 1017.8 in East 20.4 mph 20.4 mph 34 % 0.0 in
17:23 26.2 °F 9.1 °F 1017.8 in ENE 16.4 mph 16.4 mph 34 % 0.0 in
17:28 26.1 °F 9.0 °F 1017.8 in East 18.5 mph 18.5 mph 34 % 0.0 in
17:33 26.2 °F 8.7 °F 1017.8 in ESE 16.7 mph 16.7 mph 33 % 0.0 in
17:38 26.3 °F 8.7 °F 1017.8 in ESE 16.7 mph 16.7 mph 33 % 0.0 in
17:43 26.2 °F 8.7 °F 1017.8 in ESE 13.0 mph 13.0 mph 33 % 0.0 in
17:48 26.2 °F 8.2 °F 1017.8 in ESE 18.5 mph 18.5 mph 32 % 0.0 in
17:53 26.1 °F 8.6 °F 1017.8 in ESE 16.7 mph 16.7 mph 33 % 0.0 in
17:58 26.0 °F 8.5 °F 1017.8 in ESE 18.5 mph 18.5 mph 33 % 0.0 in
18:03 25.8 °F 7.8 °F 1017.8 in East 16.7 mph 16.7 mph 32 % 0.0 in
18:08 25.7 °F 8.2 °F 1017.8 in SE 16.7 mph 16.7 mph 33 % 0.0 in
18:13 25.7 °F 8.7 °F 1017.8 in ESE 16.7 mph 16.7 mph 34 % 0.0 in
18:18 25.5 °F 8.5 °F 1017.8 in ESE 16.7 mph 16.7 mph 34 % 0.0 in
18:23 25.5 °F 8.9 °F 1016.8 in ESE 11.1 mph 11.1 mph 35 % 0.0 in
18:28 25.3 °F 8.7 °F 1016.8 in ESE 16.7 mph 16.7 mph 35 % 0.0 in
18:33 25.3 °F 8.7 °F 1016.8 in ESE 13.0 mph 13.0 mph 35 % 0.0 in
18:38 25.2 °F 8.7 °F 1016.8 in ESE 20.4 mph 20.4 mph 35 % 0.0 in
18:43 25.2 °F 9.1 °F 1016.8 in East 13.0 mph 13.0 mph 36 % 0.0 in
18:48 25.0 °F 8.9 °F 1016.8 in East 18.5 mph 18.5 mph 36 % 0.0 in
18:53 24.8 °F 9.1 °F 1016.8 in SE 16.7 mph 16.7 mph 37 % 0.0 in
18:58 24.7 °F 9.0 °F 1016.8 in ESE 18.5 mph 18.5 mph 37 % 0.0 in
19:03 24.6 °F 8.9 °F 1016.8 in ESE 13.0 mph 13.0 mph 37 % 0.0 in
19:08 24.6 °F 8.9 °F 1015.8 in ENE 13.0 mph 13.0 mph 37 % 0.0 in
19:13 24.5 °F 8.8 °F 1015.8 in ESE 14.8 mph 14.8 mph 37 % 0.0 in
19:18 24.5 °F 9.2 °F 1015.8 in ESE 13.0 mph 13.0 mph 38 % 0.0 in
19:20 19.2 °F 10.4 °F 1017.8 in Calm     57 % 0.0 in
19:23 24.5 °F 9.6 °F 1016.8 in SE 9.3 mph 9.3 mph 39 % 0.0 in
19:28 24.4 °F 9.2 °F 1016.8 in ESE 10.0 mph 10.0 mph 38 % 0.0 in
19:30 19.0 °F 10.6 °F 1017.8 in Calm     58 % 0.0 in
19:33 24.3 °F 9.4 °F 1016.8 in East 14.8 mph 14.8 mph 39 % 0.0 in
19:38 24.2 °F 9.4 °F 1015.8 in South 9.3 mph 9.3 mph 39 % 0.0 in
19:40 18.9 °F 10.7 °F 1017.8 in NE 1.6 mph 1.6 mph 59 % 0.0 in
19:43 24.3 °F 9.4 °F 1015.8 in SE 9.3 mph 9.3 mph 39 % 0.0 in
19:48 24.2 °F 9.7 °F 1015.8 in SE 12.6 mph 12.6 mph 40 % 0.0 in
19:50 18.7 °F 10.8 °F 1017.8 in Calm   1.6 mph 60 % 0.0 in
19:53 23.9 °F 9.5 °F 1016.8 in ESE 11.1 mph 11.1 mph 40 % 0.0 in
19:58 23.9 °F 9.5 °F 1016.8 in South 7.4 mph 7.4 mph 40 % 0.0 in
20:00 18.4 °F 10.5 °F 1017.8 in ENE 1.6 mph 1.6 mph 60 % 0.0 in
20:03 23.6 °F 9.2 °F 1016.8 in ESE 9.3 mph 9.3 mph 40 % 0.0 in
20:08 23.5 °F 9.1 °F 1016.8 in ESE 11.1 mph 11.1 mph 40 % 0.0 in
20:10 18.2 °F 10.6 °F 1017.8 in ENE 1.6 mph 3.2 mph 61 % 0.0 in
20:13 23.3 °F 9.3 °F 1016.8 in ESE 12.2 mph 12.2 mph 41 % 0.0 in
20:18 23.2 °F 9.2 °F 1016.8 in ENE 11.1 mph 11.1 mph 41 % 0.0 in
20:20 18.0 °F 10.4 °F 1017.8 in Calm   3.2 mph 61 % 0.0 in
20:23 23.1 °F 9.1 °F 1016.8 in SSE 13.0 mph 13.0 mph 41 % 0.0 in
20:28 23.0 °F 9.4 °F 1016.8 in East 9.3 mph 9.3 mph 42 % 0.0 in
20:30 17.9 °F 10.3 °F 1017.8 in Calm   1.6 mph 61 % 0.0 in
20:33 22.8 °F 9.6 °F 1016.8 in East 10.0 mph 10.0 mph 43 % 0.0 in
20:38 22.7 °F 9.8 °F 1016.8 in East 7.4 mph 7.4 mph 44 % 0.0 in
20:40 17.8 °F 10.4 °F 1017.8 in Calm   1.6 mph 62 % 0.0 in
20:43 22.5 °F 9.6 °F 1016.8 in ESE 6.4 mph 6.4 mph 44 % 0.0 in
20:48 22.4 °F 9.6 °F 1016.8 in ESE 5.6 mph 5.6 mph 44 % 0.0 in
20:50 17.6 °F 10.2 °F 1017.8 in NE 1.6 mph 3.2 mph 62 % 0.0 in
20:53 22.3 °F 9.8 °F 1016.8 in ESE 7.4 mph 7.4 mph 45 % 0.0 in
20:58 22.2 °F 9.7 °F 1016.8 in ESE 7.4 mph 7.4 mph 45 % 0.0 in
21:00 17.5 °F 10.4 °F 1017.8 in NE 1.6 mph 3.2 mph 63 % 0.0 in
21:03 22.1 °F 9.6 °F 1016.8 in ESE 11.1 mph 11.1 mph 45 % 0.0 in
21:08 22.0 °F 9.8 °F 1016.8 in ESE 5.6 mph 5.6 mph 46 % 0.0 in
21:10 17.4 °F 10.3 °F 1016.8 in Calm   1.6 mph 63 % 0.0 in
21:13 22.0 °F 9.8 °F 1016.8 in SE 7.4 mph 7.4 mph 46 % 0.0 in
21:18 21.9 °F 10.1 °F 1016.8 in ESE 7.4 mph 7.4 mph 47 % 0.0 in
21:20 17.4 °F 10.3 °F 1016.8 in NE 1.6 mph 3.2 mph 63 % 0.0 in
21:23 21.7 °F 9.9 °F 1016.8 in SSE 5.6 mph 5.6 mph 47 % 0.0 in
21:28 21.7 °F 9.9 °F 1016.8 in East 5.6 mph 5.6 mph 47 % 0.0 in
21:30 17.2 °F 10.1 °F 1016.8 in NE 1.6 mph 1.6 mph 63 % 0.0 in
21:33 21.6 °F 9.8 °F 1016.8 in SE 3.7 mph 3.7 mph 47 % 0.0 in
21:38 21.5 °F 10.0 °F 1016.8 in East 3.7 mph 3.7 mph 48 % 0.0 in
21:40 17.2 °F 9.8 °F 1016.8 in NE 1.6 mph 3.2 mph 62 % 0.0 in
21:43 21.3 °F 9.8 °F 1016.8 in ENE 3.9 mph 3.9 mph 48 % 0.0 in
21:48 21.2 °F 9.7 °F 1016.8 in ESE 3.7 mph 3.7 mph 48 % 0.0 in
21:50 17.1 °F 10.0 °F 1015.8 in Calm   1.6 mph 63 % 0.0 in
21:53 21.2 °F 9.7 °F 1017.8 in NE 3.7 mph 3.7 mph 48 % 0.0 in
21:58 21.1 °F 9.9 °F 1017.8 in ENE 3.7 mph   49 % 0.0 in
22:00 16.9 °F 10.1 °F 1015.8 in Calm     64 % 0.0 in
22:03 21.0 °F 9.9 °F 1017.8 in ENE 3.7 mph 3.7 mph 49 % 0.0 in
22:08 21.0 °F 9.9 °F 1017.8 in NNE 4.7 mph 4.7 mph 49 % 0.0 in
22:10 16.8 °F 10.2 °F 1015.8 in Calm     65 % 0.0 in
22:13 20.9 °F 10.1 °F 1017.8 in ENE 3.7 mph 3.7 mph 50 % 0.0 in
22:18 20.8 °F 10.0 °F 1017.8 in NNE 3.7 mph 3.7 mph 50 % 0.0 in
22:20 16.5 °F 9.9 °F 1015.8 in NE 1.6 mph 1.6 mph 65 % 0.0 in
22:23 20.8 °F 10.3 °F 1017.8 in NE 5.6 mph 5.6 mph 51 % 0.0 in
22:28 20.8 °F 10.3 °F 1017.8 in NE 3.7 mph 3.7 mph 51 % 0.0 in
22:30 16.2 °F 9.8 °F 1015.8 in Calm   1.6 mph 66 % 0.0 in
22:33 20.7 °F 10.2 °F 1017.8 in NE 3.9 mph 3.9 mph 51 % 0.0 in
22:38 20.7 °F 10.2 °F 1017.8 in NNE 3.7 mph 3.7 mph 51 % 0.0 in
22:40 16.0 °F 9.7 °F 1015.8 in Calm     66 % 0.0 in
22:43 20.5 °F 10.3 °F 1017.8 in NNE 3.7 mph 3.7 mph 52 % 0.0 in
22:48 20.5 °F 10.3 °F 1017.8 in NE 3.7 mph 3.7 mph 52 % 0.0 in
22:50 15.8 °F 9.2 °F 1015.8 in Calm     65 % 0.0 in
22:53 20.4 °F 10.5 °F 1017.8 in NE 1.9 mph   53 % 0.0 in
22:58 20.3 °F 10.4 °F 1017.8 in NNE 2.3 mph 2.3 mph 53 % 0.0 in
23:00 15.8 °F 9.2 °F 1015.8 in SW 3.2 mph 3.2 mph 65 % 0.0 in
23:03 20.2 °F 10.3 °F 1017.8 in Calm     53 % 0.0 in
23:08 20.1 °F 10.5 °F 1017.8 in NNE 1.9 mph 1.9 mph 54 % 0.0 in
23:10 15.6 °F 9.1 °F 1015.8 in SW 1.6 mph 3.2 mph 65 % 0.0 in
23:13 20.1 °F 10.5 °F 1017.8 in NNE 2.3 mph 2.3 mph 54 % 0.0 in
23:18 20.1 °F 10.5 °F 1017.8 in NE 3.7 mph 3.7 mph 54 % 0.0 in
23:20 15.6 °F 9.1 °F 1015.8 in WSW 1.6 mph 3.2 mph 65 % 0.0 in
23:23 20.0 °F 10.7 °F 1017.8 in Calm     55 % 0.0 in
23:28 19.9 °F 10.6 °F 1017.8 in Calm     55 % 0.0 in
23:30 15.6 °F 9.1 °F 1015.8 in SW 1.6 mph 1.6 mph 65 % 0.0 in
23:33 19.8 °F 10.5 °F 1017.8 in Calm     55 % 0.0 in
23:38 19.7 °F 10.4 °F 1016.8 in Calm     55 % 0.0 in
23:40 15.7 °F 9.4 °F 1015.8 in Calm   1.6 mph 66 % 0.0 in
23:43 19.6 °F 10.6 °F 1016.8 in Calm     56 % 0.0 in
23:48 19.6 °F 10.6 °F 1016.8 in NE 1.9 mph   56 % 0.0 in
23:50 15.6 °F 9.3 °F 1015.8 in Calm     66 % 0.0 in
23:53 19.6 °F 10.6 °F 1017.8 in Calm     56 % 0.0 in
23:58 19.5 °F 10.8 °F 1017.8 in Calm     57 % 0.0 in
Meteo Sesrovires
Elogis d' Weather Underground - 4 mb

Guio original per  Jim McMurry - jmcmurry@mwt.net Adaptat per a la plantilla per  Wim van der Kuil - Leuven-Template.eu

Trobareu la nostra informacio del temps tambe a:

Weather Underground

AWEKAS